Moose River, Maine
Current Conditions -  °F | °C
As of 10:00 PM on Monday 26 Jan 2015 (Local Time) from CYSC Reporting Station
Overcast Overcast  
Wind Chill: -8°   Ceiling: 15000
Heat Index:   Visibility: 9mi
Dew Point: -2°   Wind: 8mph
Humidity: 72%   Direction: 40°NE
Pressure: 30.12"   Gusts: NA
Location:  45.7142°N, 70.304°W
Report Text: CYSC 270300Z AUTO 04007KT 9SM OVC150 M15/M19 A3012 RMK SLP221
Loading
Personal Weather Stations






























Interactive Weather Map New forecast layout! Learn more

10-Day Weather Forecast

Advertisements
Track Severe Weather on mobile